sensor_id;sensor_type;location;lat;lon;timestamp;temperature;humidity
56729;DHT22;42612;52.232;7.560;2023-12-20T00:01:36;10.90;68.80
56729;DHT22;42612;52.232;7.560;2023-12-20T00:04:02;10.90;68.80
56729;DHT22;42612;52.232;7.560;2023-12-20T00:06:29;10.80;68.80
56729;DHT22;42612;52.232;7.560;2023-12-20T00:08:55;10.80;68.80
56729;DHT22;42612;52.232;7.560;2023-12-20T00:11:23;10.80;68.90
56729;DHT22;42612;52.232;7.560;2023-12-20T00:13:49;10.80;68.90
56729;DHT22;42612;52.232;7.560;2023-12-20T00:16:15;10.80;69.00
56729;DHT22;42612;52.232;7.560;2023-12-20T00:18:40;10.80;69.00
56729;DHT22;42612;52.232;7.560;2023-12-20T00:21:06;10.80;69.10
56729;DHT22;42612;52.232;7.560;2023-12-20T00:23:32;10.70;69.00
56729;DHT22;42612;52.232;7.560;2023-12-20T00:25:58;10.80;69.10
56729;DHT22;42612;52.232;7.560;2023-12-20T00:28:24;10.80;69.10
56729;DHT22;42612;52.232;7.560;2023-12-20T00:30:49;10.70;69.10
56729;DHT22;42612;52.232;7.560;2023-12-20T00:33:15;10.70;69.00
56729;DHT22;42612;52.232;7.560;2023-12-20T00:35:41;10.70;69.00
56729;DHT22;42612;52.232;7.560;2023-12-20T00:38:06;10.70;69.00
56729;DHT22;42612;52.232;7.560;2023-12-20T00:40:34;10.70;69.10
56729;DHT22;42612;52.232;7.560;2023-12-20T00:43:00;10.70;69.10
56729;DHT22;42612;52.232;7.560;2023-12-20T00:45:25;10.70;68.90
56729;DHT22;42612;52.232;7.560;2023-12-20T00:47:51;10.70;69.00
56729;DHT22;42612;52.232;7.560;2023-12-20T00:50:17;10.60;68.90
56729;DHT22;42612;52.232;7.560;2023-12-20T00:52:42;10.60;68.90
56729;DHT22;42612;52.232;7.560;2023-12-20T00:55:08;10.60;68.90
56729;DHT22;42612;52.232;7.560;2023-12-20T00:57:34;10.60;68.90
56729;DHT22;42612;52.232;7.560;2023-12-20T01:00:00;10.60;68.90
56729;DHT22;42612;52.232;7.560;2023-12-20T01:02:26;10.60;68.80
56729;DHT22;42612;52.232;7.560;2023-12-20T01:04:52;10.60;68.70
56729;DHT22;42612;52.232;7.560;2023-12-20T01:07:17;10.60;69.30
56729;DHT22;42612;52.232;7.560;2023-12-20T01:09:43;10.60;68.60
56729;DHT22;42612;52.232;7.560;2023-12-20T01:12:09;10.50;68.60
56729;DHT22;42612;52.232;7.560;2023-12-20T01:14:34;10.50;68.60
56729;DHT22;42612;52.232;7.560;2023-12-20T01:17:01;10.50;68.60
56729;DHT22;42612;52.232;7.560;2023-12-20T01:19:27;10.50;68.60
56729;DHT22;42612;52.232;7.560;2023-12-20T01:21:53;10.50;68.60
56729;DHT22;42612;52.232;7.560;2023-12-20T01:24:19;10.50;68.60
56729;DHT22;42612;52.232;7.560;2023-12-20T01:26:45;10.50;68.50
56729;DHT22;42612;52.232;7.560;2023-12-20T01:29:10;10.50;68.50
56729;DHT22;42612;52.232;7.560;2023-12-20T01:31:36;10.40;68.30
56729;DHT22;42612;52.232;7.560;2023-12-20T01:34:02;10.40;68.30
56729;DHT22;42612;52.232;7.560;2023-12-20T01:36:28;10.40;68.20
56729;DHT22;42612;52.232;7.560;2023-12-20T01:38:54;10.40;68.20
56729;DHT22;42612;52.232;7.560;2023-12-20T01:41:20;10.40;68.20
56729;DHT22;42612;52.232;7.560;2023-12-20T01:43:45;10.40;68.20
56729;DHT22;42612;52.232;7.560;2023-12-20T01:46:11;10.30;68.10
56729;DHT22;42612;52.232;7.560;2023-12-20T01:48:38;10.30;68.10
56729;DHT22;42612;52.232;7.560;2023-12-20T01:51:04;10.30;68.10
56729;DHT22;42612;52.232;7.560;2023-12-20T01:53:30;10.30;68.00
56729;DHT22;42612;52.232;7.560;2023-12-20T01:55:58;10.30;68.10
56729;DHT22;42612;52.232;7.560;2023-12-20T01:58:25;10.30;68.10
56729;DHT22;42612;52.232;7.560;2023-12-20T02:00:51;10.30;68.20
56729;DHT22;42612;52.232;7.560;2023-12-20T02:03:18;10.20;68.00
56729;DHT22;42612;52.232;7.560;2023-12-20T02:05:44;10.30;68.00
56729;DHT22;42612;52.232;7.560;2023-12-20T02:08:11;10.20;68.00
56729;DHT22;42612;52.232;7.560;2023-12-20T02:10:37;10.20;68.10
56729;DHT22;42612;52.232;7.560;2023-12-20T02:13:03;10.20;68.10
56729;DHT22;42612;52.232;7.560;2023-12-20T02:15:29;10.20;68.20
56729;DHT22;42612;52.232;7.560;2023-12-20T02:17:55;10.10;68.10
56729;DHT22;42612;52.232;7.560;2023-12-20T02:20:21;10.10;68.10
56729;DHT22;42612;52.232;7.560;2023-12-20T02:22:47;10.10;68.10
56729;DHT22;42612;52.232;7.560;2023-12-20T02:25:13;10.10;68.10
56729;DHT22;42612;52.232;7.560;2023-12-20T02:27:39;10.10;68.10
56729;DHT22;42612;52.232;7.560;2023-12-20T02:30:06;10.00;68.00
56729;DHT22;42612;52.232;7.560;2023-12-20T02:32:32;10.00;68.10
56729;DHT22;42612;52.232;7.560;2023-12-20T02:34:58;10.00;68.80
56729;DHT22;42612;52.232;7.560;2023-12-20T02:37:24;10.00;68.40
56729;DHT22;42612;52.232;7.560;2023-12-20T02:39:49;10.00;68.20
56729;DHT22;42612;52.232;7.560;2023-12-20T02:42:15;9.90;68.20
56729;DHT22;42612;52.232;7.560;2023-12-20T02:44:41;9.90;68.20
56729;DHT22;42612;52.232;7.560;2023-12-20T02:47:07;9.90;68.10
56729;DHT22;42612;52.232;7.560;2023-12-20T02:49:32;9.90;68.10
56729;DHT22;42612;52.232;7.560;2023-12-20T02:51:58;9.90;68.10
56729;DHT22;42612;52.232;7.560;2023-12-20T02:54:24;9.90;68.10
56729;DHT22;42612;52.232;7.560;2023-12-20T02:56:49;9.80;68.10
56729;DHT22;42612;52.232;7.560;2023-12-20T02:59:15;9.80;68.10
56729;DHT22;42612;52.232;7.560;2023-12-20T03:01:45;9.80;68.10
56729;DHT22;42612;52.232;7.560;2023-12-20T03:04:12;9.80;68.10
56729;DHT22;42612;52.232;7.560;2023-12-20T03:06:38;9.80;68.20
56729;DHT22;42612;52.232;7.560;2023-12-20T03:09:04;9.80;68.10
56729;DHT22;42612;52.232;7.560;2023-12-20T03:11:30;9.80;68.10
56729;DHT22;42612;52.232;7.560;2023-12-20T03:13:56;9.80;68.00
56729;DHT22;42612;52.232;7.560;2023-12-20T03:16:22;9.80;68.00
56729;DHT22;42612;52.232;7.560;2023-12-20T03:18:49;9.80;68.10
56729;DHT22;42612;52.232;7.560;2023-12-20T03:21:15;9.70;68.00
56729;DHT22;42612;52.232;7.560;2023-12-20T03:23:41;9.70;68.00
56729;DHT22;42612;52.232;7.560;2023-12-20T03:26:07;9.70;68.00
56729;DHT22;42612;52.232;7.560;2023-12-20T03:28:33;9.70;68.00
56729;DHT22;42612;52.232;7.560;2023-12-20T03:31:00;9.70;68.00
56729;DHT22;42612;52.232;7.560;2023-12-20T03:33:27;9.70;68.00
56729;DHT22;42612;52.232;7.560;2023-12-20T03:35:53;9.70;68.00
56729;DHT22;42612;52.232;7.560;2023-12-20T03:38:19;9.70;68.00
56729;DHT22;42612;52.232;7.560;2023-12-20T03:40:45;9.70;68.70
56729;DHT22;42612;52.232;7.560;2023-12-20T03:43:11;9.70;68.00
56729;DHT22;42612;52.232;7.560;2023-12-20T03:45:37;9.70;68.10
56729;DHT22;42612;52.232;7.560;2023-12-20T03:48:02;9.70;68.10
56729;DHT22;42612;52.232;7.560;2023-12-20T03:50:29;9.70;68.70
56729;DHT22;42612;52.232;7.560;2023-12-20T03:52:54;9.70;68.10
56729;DHT22;42612;52.232;7.560;2023-12-20T03:55:20;9.70;68.20
56729;DHT22;42612;52.232;7.560;2023-12-20T03:57:46;9.70;68.20
56729;DHT22;42612;52.232;7.560;2023-12-20T04:00:12;9.70;68.20
56729;DHT22;42612;52.232;7.560;2023-12-20T04:02:38;9.70;68.20
56729;DHT22;42612;52.232;7.560;2023-12-20T04:05:05;9.70;68.30
56729;DHT22;42612;52.232;7.560;2023-12-20T04:07:32;9.60;68.30
56729;DHT22;42612;52.232;7.560;2023-12-20T04:09:58;9.70;68.30
56729;DHT22;42612;52.232;7.560;2023-12-20T04:12:24;9.60;68.20
56729;DHT22;42612;52.232;7.560;2023-12-20T04:14:50;9.70;68.30
56729;DHT22;42612;52.232;7.560;2023-12-20T04:17:16;9.70;68.20
56729;DHT22;42612;52.232;7.560;2023-12-20T04:19:43;9.70;68.10
56729;DHT22;42612;52.232;7.560;2023-12-20T04:22:09;9.70;68.10
56729;DHT22;42612;52.232;7.560;2023-12-20T04:24:34;9.70;68.10
56729;DHT22;42612;52.232;7.560;2023-12-20T04:27:01;9.70;68.10
56729;DHT22;42612;52.232;7.560;2023-12-20T04:29:27;9.70;68.10
56729;DHT22;42612;52.232;7.560;2023-12-20T04:31:53;9.70;68.10
56729;DHT22;42612;52.232;7.560;2023-12-20T04:34:19;9.70;68.10
56729;DHT22;42612;52.232;7.560;2023-12-20T04:36:44;9.70;68.10
56729;DHT22;42612;52.232;7.560;2023-12-20T04:39:12;9.70;68.10
56729;DHT22;42612;52.232;7.560;2023-12-20T04:41:38;9.70;68.10
56729;DHT22;42612;52.232;7.560;2023-12-20T04:44:05;9.70;68.10
56729;DHT22;42612;52.232;7.560;2023-12-20T04:46:31;9.70;68.20
56729;DHT22;42612;52.232;7.560;2023-12-20T04:48:57;9.80;68.30
56729;DHT22;42612;52.232;7.560;2023-12-20T04:51:23;9.80;68.30
56729;DHT22;42612;52.232;7.560;2023-12-20T04:53:48;9.80;68.20
56729;DHT22;42612;52.232;7.560;2023-12-20T04:56:14;9.80;68.20
56729;DHT22;42612;52.232;7.560;2023-12-20T04:58:40;9.80;68.20
56729;DHT22;42612;52.232;7.560;2023-12-20T05:01:06;9.80;68.20
56729;DHT22;42612;52.232;7.560;2023-12-20T05:03:32;9.80;68.20
56729;DHT22;42612;52.232;7.560;2023-12-20T05:05:58;9.80;68.10
56729;DHT22;42612;52.232;7.560;2023-12-20T05:08:24;9.80;68.20
56729;DHT22;42612;52.232;7.560;2023-12-20T05:10:51;9.80;68.20
56729;DHT22;42612;52.232;7.560;2023-12-20T05:13:18;9.80;68.20
56729;DHT22;42612;52.232;7.560;2023-12-20T05:15:44;9.80;68.20
56729;DHT22;42612;52.232;7.560;2023-12-20T05:18:10;9.80;68.20
56729;DHT22;42612;52.232;7.560;2023-12-20T05:20:35;9.80;68.10
56729;DHT22;42612;52.232;7.560;2023-12-20T05:23:01;9.80;68.10
56729;DHT22;42612;52.232;7.560;2023-12-20T05:25:27;9.80;68.20
56729;DHT22;42612;52.232;7.560;2023-12-20T05:27:52;9.80;68.10
56729;DHT22;42612;52.232;7.560;2023-12-20T05:30:18;9.90;68.20
56729;DHT22;42612;52.232;7.560;2023-12-20T05:32:44;9.80;68.10
56729;DHT22;42612;52.232;7.560;2023-12-20T05:35:10;9.80;68.10
56729;DHT22;42612;52.232;7.560;2023-12-20T05:37:35;9.80;68.10
56729;DHT22;42612;52.232;7.560;2023-12-20T05:40:01;9.80;68.10
56729;DHT22;42612;52.232;7.560;2023-12-20T05:42:27;9.80;68.10
56729;DHT22;42612;52.232;7.560;2023-12-20T05:44:52;9.80;68.10
56729;DHT22;42612;52.232;7.560;2023-12-20T05:47:18;9.80;68.80
56729;DHT22;42612;52.232;7.560;2023-12-20T05:49:44;9.80;68.20
56729;DHT22;42612;52.232;7.560;2023-12-20T05:52:10;9.80;68.20
56729;DHT22;42612;52.232;7.560;2023-12-20T05:54:36;9.80;68.20
56729;DHT22;42612;52.232;7.560;2023-12-20T05:57:02;9.80;68.20
56729;DHT22;42612;52.232;7.560;2023-12-20T05:59:28;9.80;68.20
56729;DHT22;42612;52.232;7.560;2023-12-20T06:01:53;9.80;68.20
56729;DHT22;42612;52.232;7.560;2023-12-20T06:04:19;9.80;68.20
56729;DHT22;42612;52.232;7.560;2023-12-20T06:06:45;9.80;68.20
56729;DHT22;42612;52.232;7.560;2023-12-20T06:09:11;9.80;68.30
56729;DHT22;42612;52.232;7.560;2023-12-20T06:11:37;9.80;68.20
56729;DHT22;42612;52.232;7.560;2023-12-20T06:14:02;9.80;68.30
56729;DHT22;42612;52.232;7.560;2023-12-20T06:16:28;9.80;68.30
56729;DHT22;42612;52.232;7.560;2023-12-20T06:18:54;9.80;68.30
56729;DHT22;42612;52.232;7.560;2023-12-20T06:21:19;9.80;68.30
56729;DHT22;42612;52.232;7.560;2023-12-20T06:23:45;9.80;68.30
56729;DHT22;42612;52.232;7.560;2023-12-20T06:26:11;9.80;68.30
56729;DHT22;42612;52.232;7.560;2023-12-20T06:28:36;9.80;68.30
56729;DHT22;42612;52.232;7.560;2023-12-20T06:31:02;9.80;68.20
56729;DHT22;42612;52.232;7.560;2023-12-20T06:33:29;9.80;68.20
56729;DHT22;42612;52.232;7.560;2023-12-20T06:35:56;9.80;68.10
56729;DHT22;42612;52.232;7.560;2023-12-20T06:38:22;9.80;68.10
56729;DHT22;42612;52.232;7.560;2023-12-20T06:40:48;9.80;68.10
56729;DHT22;42612;52.232;7.560;2023-12-20T06:43:14;9.80;68.10
56729;DHT22;42612;52.232;7.560;2023-12-20T06:45:40;9.80;68.10
56729;DHT22;42612;52.232;7.560;2023-12-20T06:48:06;9.80;68.10
56729;DHT22;42612;52.232;7.560;2023-12-20T06:50:32;9.90;68.10
56729;DHT22;42612;52.232;7.560;2023-12-20T06:52:58;9.90;68.10
56729;DHT22;42612;52.232;7.560;2023-12-20T06:55:23;9.90;68.10
56729;DHT22;42612;52.232;7.560;2023-12-20T06:57:49;9.90;68.00
56729;DHT22;42612;52.232;7.560;2023-12-20T07:00:15;9.90;68.00
56729;DHT22;42612;52.232;7.560;2023-12-20T07:02:41;9.90;68.00
56729;DHT22;42612;52.232;7.560;2023-12-20T07:05:07;9.90;68.60
56729;DHT22;42612;52.232;7.560;2023-12-20T07:07:33;9.90;67.80
56729;DHT22;42612;52.232;7.560;2023-12-20T07:09:59;9.90;67.80
56729;DHT22;42612;52.232;7.560;2023-12-20T07:12:24;9.90;67.80
56729;DHT22;42612;52.232;7.560;2023-12-20T07:14:50;9.90;67.80
56729;DHT22;42612;52.232;7.560;2023-12-20T07:17:16;9.90;67.80
56729;DHT22;42612;52.232;7.560;2023-12-20T07:19:42;9.90;67.70
56729;DHT22;42612;52.232;7.560;2023-12-20T07:22:08;9.90;67.70
56729;DHT22;42612;52.232;7.560;2023-12-20T07:24:34;9.90;67.60
56729;DHT22;42612;52.232;7.560;2023-12-20T07:27:00;9.90;67.60
56729;DHT22;42612;52.232;7.560;2023-12-20T07:29:26;9.90;67.60
56729;DHT22;42612;52.232;7.560;2023-12-20T07:31:55;9.90;67.60
56729;DHT22;42612;52.232;7.560;2023-12-20T07:34:21;9.90;67.50
56729;DHT22;42612;52.232;7.560;2023-12-20T07:36:47;9.90;67.50
56729;DHT22;42612;52.232;7.560;2023-12-20T07:39:13;9.90;67.50
56729;DHT22;42612;52.232;7.560;2023-12-20T07:41:39;9.90;67.60
56729;DHT22;42612;52.232;7.560;2023-12-20T07:44:06;10.00;67.60
56729;DHT22;42612;52.232;7.560;2023-12-20T07:46:33;10.00;67.60
56729;DHT22;42612;52.232;7.560;2023-12-20T07:48:58;10.00;67.50
56729;DHT22;42612;52.232;7.560;2023-12-20T07:51:24;10.00;67.50
56729;DHT22;42612;52.232;7.560;2023-12-20T07:53:51;10.00;67.50
56729;DHT22;42612;52.232;7.560;2023-12-20T07:56:18;10.00;67.50
56729;DHT22;42612;52.232;7.560;2023-12-20T07:58:45;10.00;67.50
56729;DHT22;42612;52.232;7.560;2023-12-20T08:01:11;10.00;67.40
56729;DHT22;42612;52.232;7.560;2023-12-20T08:03:38;10.00;67.50
56729;DHT22;42612;52.232;7.560;2023-12-20T08:06:04;10.00;67.50
56729;DHT22;42612;52.232;7.560;2023-12-20T08:08:30;10.10;67.40
56729;DHT22;42612;52.232;7.560;2023-12-20T08:10:56;10.10;67.50
56729;DHT22;42612;52.232;7.560;2023-12-20T08:13:24;10.10;67.40
56729;DHT22;42612;52.232;7.560;2023-12-20T08:15:52;10.10;67.50
56729;DHT22;42612;52.232;7.560;2023-12-20T08:18:17;10.10;67.40
56729;DHT22;42612;52.232;7.560;2023-12-20T08:20:43;10.10;67.40
56729;DHT22;42612;52.232;7.560;2023-12-20T08:23:09;10.10;67.50
56729;DHT22;42612;52.232;7.560;2023-12-20T08:25:35;10.10;67.50
56729;DHT22;42612;52.232;7.560;2023-12-20T08:28:02;10.10;67.50
56729;DHT22;42612;52.232;7.560;2023-12-20T08:30:28;10.10;67.60
56729;DHT22;42612;52.232;7.560;2023-12-20T08:32:55;10.10;67.60
56729;DHT22;42612;52.232;7.560;2023-12-20T08:35:20;10.10;67.50
56729;DHT22;42612;52.232;7.560;2023-12-20T08:37:46;10.10;67.50
56729;DHT22;42612;52.232;7.560;2023-12-20T08:40:12;10.10;67.60
56729;DHT22;42612;52.232;7.560;2023-12-20T08:42:38;10.10;67.60
56729;DHT22;42612;52.232;7.560;2023-12-20T08:45:05;10.10;67.60
56729;DHT22;42612;52.232;7.560;2023-12-20T08:47:31;10.10;67.50
56729;DHT22;42612;52.232;7.560;2023-12-20T08:49:56;10.10;67.50
56729;DHT22;42612;52.232;7.560;2023-12-20T08:52:24;10.10;67.60
56729;DHT22;42612;52.232;7.560;2023-12-20T08:54:52;10.10;67.60
56729;DHT22;42612;52.232;7.560;2023-12-20T08:57:22;10.20;67.70
56729;DHT22;42612;52.232;7.560;2023-12-20T08:59:50;10.20;67.50
56729;DHT22;42612;52.232;7.560;2023-12-20T09:02:17;10.20;67.60
56729;DHT22;42612;52.232;7.560;2023-12-20T09:04:43;10.20;68.30
56729;DHT22;42612;52.232;7.560;2023-12-20T09:07:25;10.20;67.70
56729;DHT22;42612;52.232;7.560;2023-12-20T09:09:52;10.20;67.60
56729;DHT22;42612;52.232;7.560;2023-12-20T09:12:21;10.20;67.70
56729;DHT22;42612;52.232;7.560;2023-12-20T09:14:47;10.20;67.70
56729;DHT22;42612;52.232;7.560;2023-12-20T09:17:15;10.20;67.80
56729;DHT22;42612;52.232;7.560;2023-12-20T09:19:42;10.20;67.90
56729;DHT22;42612;52.232;7.560;2023-12-20T09:22:09;10.20;68.60
56729;DHT22;42612;52.232;7.560;2023-12-20T09:24:36;10.20;68.00
56729;DHT22;42612;52.232;7.560;2023-12-20T09:27:02;10.20;68.00
56729;DHT22;42612;52.232;7.560;2023-12-20T09:29:28;10.20;68.10
56729;DHT22;42612;52.232;7.560;2023-12-20T09:31:54;10.20;68.20
56729;DHT22;42612;52.232;7.560;2023-12-20T09:34:21;10.20;68.20
56729;DHT22;42612;52.232;7.560;2023-12-20T09:36:47;10.20;68.20
56729;DHT22;42612;52.232;7.560;2023-12-20T09:39:14;10.20;68.20
56729;DHT22;42612;52.232;7.560;2023-12-20T09:41:44;10.20;68.30
56729;DHT22;42612;52.232;7.560;2023-12-20T09:44:15;10.20;68.20
56729;DHT22;42612;52.232;7.560;2023-12-20T09:46:45;10.20;68.20
56729;DHT22;42612;52.232;7.560;2023-12-20T09:49:17;10.30;68.30
56729;DHT22;42612;52.232;7.560;2023-12-20T09:51:45;10.20;68.30
56729;DHT22;42612;52.232;7.560;2023-12-20T09:54:15;10.30;68.40
56729;DHT22;42612;52.232;7.560;2023-12-20T09:56:42;10.30;68.40
56729;DHT22;42612;52.232;7.560;2023-12-20T09:59:08;10.30;68.40
56729;DHT22;42612;52.232;7.560;2023-12-20T10:01:34;10.30;68.40
56729;DHT22;42612;52.232;7.560;2023-12-20T10:04:01;10.30;68.40
56729;DHT22;42612;52.232;7.560;2023-12-20T10:06:37;10.30;68.40
56729;DHT22;42612;52.232;7.560;2023-12-20T10:09:04;10.30;68.40
56729;DHT22;42612;52.232;7.560;2023-12-20T10:11:31;10.30;68.30
56729;DHT22;42612;52.232;7.560;2023-12-20T10:14:00;10.30;68.40
56729;DHT22;42612;52.232;7.560;2023-12-20T10:16:29;10.30;68.40
56729;DHT22;42612;52.232;7.560;2023-12-20T10:18:56;10.30;68.50
56729;DHT22;42612;52.232;7.560;2023-12-20T10:21:25;10.30;68.50
56729;DHT22;42612;52.232;7.560;2023-12-20T10:24:17;10.30;68.50
56729;DHT22;42612;52.232;7.560;2023-12-20T10:26:43;10.30;68.60
56729;DHT22;42612;52.232;7.560;2023-12-20T10:29:10;10.30;68.60
56729;DHT22;42612;52.232;7.560;2023-12-20T10:31:36;10.30;68.60
56729;DHT22;42612;52.232;7.560;2023-12-20T10:34:04;10.30;68.60
56729;DHT22;42612;52.232;7.560;2023-12-20T10:36:32;10.30;68.60
56729;DHT22;42612;52.232;7.560;2023-12-20T10:38:59;10.30;68.70
56729;DHT22;42612;52.232;7.560;2023-12-20T10:41:29;10.30;68.70
56729;DHT22;42612;52.232;7.560;2023-12-20T10:43:59;10.30;68.80
56729;DHT22;42612;52.232;7.560;2023-12-20T10:46:29;10.30;68.80
56729;DHT22;42612;52.232;7.560;2023-12-20T10:48:56;10.30;68.90
56729;DHT22;42612;52.232;7.560;2023-12-20T10:51:24;10.30;68.90
56729;DHT22;42612;52.232;7.560;2023-12-20T10:53:55;10.30;68.90
56729;DHT22;42612;52.232;7.560;2023-12-20T10:56:22;10.30;68.90
56729;DHT22;42612;52.232;7.560;2023-12-20T10:58:50;10.30;68.90
56729;DHT22;42612;52.232;7.560;2023-12-20T11:01:19;10.40;69.00
56729;DHT22;42612;52.232;7.560;2023-12-20T11:03:50;10.30;69.00
56729;DHT22;42612;52.232;7.560;2023-12-20T11:06:27;10.30;69.20
56729;DHT22;42612;52.232;7.560;2023-12-20T11:09:25;10.30;69.20
56729;DHT22;42612;52.232;7.560;2023-12-20T11:12:22;10.40;69.40
56729;DHT22;42612;52.232;7.560;2023-12-20T11:14:55;10.40;69.40
56729;DHT22;42612;52.232;7.560;2023-12-20T11:17:22;10.40;69.40
56729;DHT22;42612;52.232;7.560;2023-12-20T11:22:20;10.50;69.50
56729;DHT22;42612;52.232;7.560;2023-12-20T11:24:47;10.50;69.40
56729;DHT22;42612;52.232;7.560;2023-12-20T11:27:14;10.50;69.40
56729;DHT22;42612;52.232;7.560;2023-12-20T11:29:40;10.50;69.30
56729;DHT22;42612;52.232;7.560;2023-12-20T11:34:55;10.60;69.20
56729;DHT22;42612;52.232;7.560;2023-12-20T11:37:29;10.60;69.30
56729;DHT22;42612;52.232;7.560;2023-12-20T11:40:22;10.60;69.20
56729;DHT22;42612;52.232;7.560;2023-12-20T11:42:51;10.60;69.10
56729;DHT22;42612;52.232;7.560;2023-12-20T11:45:21;10.70;69.20
56729;DHT22;42612;52.232;7.560;2023-12-20T11:47:50;10.70;69.10
56729;DHT22;42612;52.232;7.560;2023-12-20T11:50:21;10.70;69.10
56729;DHT22;42612;52.232;7.560;2023-12-20T11:52:48;10.70;69.00
56729;DHT22;42612;52.232;7.560;2023-12-20T11:55:14;10.80;69.00
56729;DHT22;42612;52.232;7.560;2023-12-20T11:57:42;10.80;68.90
56729;DHT22;42612;52.232;7.560;2023-12-20T12:00:08;10.80;68.90
56729;DHT22;42612;52.232;7.560;2023-12-20T12:02:35;10.80;69.00
56729;DHT22;42612;52.232;7.560;2023-12-20T12:05:00;10.80;68.30
56729;DHT22;42612;52.232;7.560;2023-12-20T12:07:26;10.70;67.50
56729;DHT22;42612;52.232;7.560;2023-12-20T12:09:52;10.70;67.10
56729;DHT22;42612;52.232;7.560;2023-12-20T12:12:19;10.60;67.60
56729;DHT22;42612;52.232;7.560;2023-12-20T12:14:45;10.50;66.80
56729;DHT22;42612;52.232;7.560;2023-12-20T12:17:14;10.50;67.00
56729;DHT22;42612;52.232;7.560;2023-12-20T12:19:41;10.40;67.20
56729;DHT22;42612;52.232;7.560;2023-12-20T12:22:09;10.40;67.40
56729;DHT22;42612;52.232;7.560;2023-12-20T12:24:42;10.40;67.50
56729;DHT22;42612;52.232;7.560;2023-12-20T12:27:09;10.40;68.30
56729;DHT22;42612;52.232;7.560;2023-12-20T12:29:36;10.30;67.70
56729;DHT22;42612;52.232;7.560;2023-12-20T12:32:08;10.30;67.90
56729;DHT22;42612;52.232;7.560;2023-12-20T12:34:37;10.30;67.90
56729;DHT22;42612;52.232;7.560;2023-12-20T12:37:06;10.30;67.90
56729;DHT22;42612;52.232;7.560;2023-12-20T12:39:32;10.30;67.90
56729;DHT22;42612;52.232;7.560;2023-12-20T12:41:57;10.30;68.00
56729;DHT22;42612;52.232;7.560;2023-12-20T12:44:23;10.30;68.00
56729;DHT22;42612;52.232;7.560;2023-12-20T12:46:51;10.20;67.90
56729;DHT22;42612;52.232;7.560;2023-12-20T12:49:21;10.20;67.90
56729;DHT22;42612;52.232;7.560;2023-12-20T12:51:47;10.20;68.00
56729;DHT22;42612;52.232;7.560;2023-12-20T12:54:13;10.20;68.00
56729;DHT22;42612;52.232;7.560;2023-12-20T12:56:41;10.20;68.10
56729;DHT22;42612;52.232;7.560;2023-12-20T12:59:07;10.20;68.10
56729;DHT22;42612;52.232;7.560;2023-12-20T13:01:33;10.20;68.80
56729;DHT22;42612;52.232;7.560;2023-12-20T13:03:59;10.20;68.10
56729;DHT22;42612;52.232;7.560;2023-12-20T13:06:26;10.20;68.00
56729;DHT22;42612;52.232;7.560;2023-12-20T13:08:52;10.20;68.00
56729;DHT22;42612;52.232;7.560;2023-12-20T13:11:18;10.20;68.00
56729;DHT22;42612;52.232;7.560;2023-12-20T13:13:44;10.20;68.00
56729;DHT22;42612;52.232;7.560;2023-12-20T13:16:09;10.20;68.10
56729;DHT22;42612;52.232;7.560;2023-12-20T13:18:35;10.20;68.80
56729;DHT22;42612;52.232;7.560;2023-12-20T13:21:01;10.20;68.20
56729;DHT22;42612;52.232;7.560;2023-12-20T13:23:27;10.20;68.30
56729;DHT22;42612;52.232;7.560;2023-12-20T13:25:53;10.20;68.20
56729;DHT22;42612;52.232;7.560;2023-12-20T13:28:18;10.20;68.20
56729;DHT22;42612;52.232;7.560;2023-12-20T13:30:44;10.20;68.10
56729;DHT22;42612;52.232;7.560;2023-12-20T13:33:11;10.30;68.00
56729;DHT22;42612;52.232;7.560;2023-12-20T13:35:36;10.20;68.00
56729;DHT22;42612;52.232;7.560;2023-12-20T13:38:02;10.20;67.90
56729;DHT22;42612;52.232;7.560;2023-12-20T13:40:28;10.20;68.00
56729;DHT22;42612;52.232;7.560;2023-12-20T13:42:54;10.30;68.00
56729;DHT22;42612;52.232;7.560;2023-12-20T13:45:20;10.30;68.00
56729;DHT22;42612;52.232;7.560;2023-12-20T13:47:46;10.30;68.00
56729;DHT22;42612;52.232;7.560;2023-12-20T13:50:11;10.20;67.90
56729;DHT22;42612;52.232;7.560;2023-12-20T13:52:38;10.20;67.90
56729;DHT22;42612;52.232;7.560;2023-12-20T13:55:04;10.30;68.70
56729;DHT22;42612;52.232;7.560;2023-12-20T13:57:31;10.20;68.00
56729;DHT22;42612;52.232;7.560;2023-12-20T13:59:57;10.20;68.00
56729;DHT22;42612;52.232;7.560;2023-12-20T14:02:23;10.30;67.90
56729;DHT22;42612;52.232;7.560;2023-12-20T14:04:49;10.20;67.90
56729;DHT22;42612;52.232;7.560;2023-12-20T14:07:14;10.20;68.00
56729;DHT22;42612;52.232;7.560;2023-12-20T14:09:41;10.20;68.10
56729;DHT22;42612;52.232;7.560;2023-12-20T14:12:11;10.20;68.10
56729;DHT22;42612;52.232;7.560;2023-12-20T14:14:37;10.20;68.10
56729;DHT22;42612;52.232;7.560;2023-12-20T14:17:03;10.20;68.10
56729;DHT22;42612;52.232;7.560;2023-12-20T14:19:32;10.20;68.20
56729;DHT22;42612;52.232;7.560;2023-12-20T14:21:58;10.20;68.20
56729;DHT22;42612;52.232;7.560;2023-12-20T14:24:26;10.20;68.20
56729;DHT22;42612;52.232;7.560;2023-12-20T14:26:53;10.20;68.20
56729;DHT22;42612;52.232;7.560;2023-12-20T14:29:18;10.20;68.20
56729;DHT22;42612;52.232;7.560;2023-12-20T14:31:45;10.30;68.30
56729;DHT22;42612;52.232;7.560;2023-12-20T14:34:10;10.30;68.20
56729;DHT22;42612;52.232;7.560;2023-12-20T14:36:37;10.30;68.30
56729;DHT22;42612;52.232;7.560;2023-12-20T14:39:03;10.30;68.20
56729;DHT22;42612;52.232;7.560;2023-12-20T14:41:30;10.30;68.20
56729;DHT22;42612;52.232;7.560;2023-12-20T14:43:56;10.30;68.20
56729;DHT22;42612;52.232;7.560;2023-12-20T14:46:22;10.30;68.20
56729;DHT22;42612;52.232;7.560;2023-12-20T14:48:47;10.30;68.30
56729;DHT22;42612;52.232;7.560;2023-12-20T14:51:15;10.30;68.30
56729;DHT22;42612;52.232;7.560;2023-12-20T14:53:41;10.30;68.30
56729;DHT22;42612;52.232;7.560;2023-12-20T14:56:07;10.30;68.30
56729;DHT22;42612;52.232;7.560;2023-12-20T14:58:33;10.30;68.30
56729;DHT22;42612;52.232;7.560;2023-12-20T15:01:00;10.20;68.50
56729;DHT22;42612;52.232;7.560;2023-12-20T15:03:26;10.30;68.60
56729;DHT22;42612;52.232;7.560;2023-12-20T15:05:52;10.30;68.80
56729;DHT22;42612;52.232;7.560;2023-12-20T15:08:17;10.30;68.80
56729;DHT22;42612;52.232;7.560;2023-12-20T15:10:43;10.30;69.00
56729;DHT22;42612;52.232;7.560;2023-12-20T15:13:09;10.30;69.10
56729;DHT22;42612;52.232;7.560;2023-12-20T15:15:35;10.20;69.00
56729;DHT22;42612;52.232;7.560;2023-12-20T15:18:01;10.30;69.10
56729;DHT22;42612;52.232;7.560;2023-12-20T15:20:29;10.30;69.00
56729;DHT22;42612;52.232;7.560;2023-12-20T15:22:55;10.30;68.90
56729;DHT22;42612;52.232;7.560;2023-12-20T15:25:24;10.30;68.90
56729;DHT22;42612;52.232;7.560;2023-12-20T15:27:49;10.30;68.80
56729;DHT22;42612;52.232;7.560;2023-12-20T15:30:19;10.30;68.90
56729;DHT22;42612;52.232;7.560;2023-12-20T15:32:45;10.30;68.90
56729;DHT22;42612;52.232;7.560;2023-12-20T15:35:11;10.40;68.90
56729;DHT22;42612;52.232;7.560;2023-12-20T15:37:38;10.40;69.00